Terminal Aerodrome Forecast
Issued by NWS Wichita, KS

Home | Current Version | Previous Version | Graphics & Text | Print | Product List | Glossary On
Versions: 1 2 3 4 5 6 7 8 9 10 11 12 13 14 15 16 17
000
FTUS43 KICT 262340
TAFICT
TAF
KICT 262340Z 2700/2724 02015KT P6SM OVC008
      TEMPO 2701/2704 3SM -DZ
     FM270400 35008KT 5SM -SN BR SCT004 OVC008
     FM270700 33012KT P6SM OVC008
     FM271200 33010KT P6SM OVC015
     FM271900 30010KT P6SM SCT025=

USA.gov is the U.S. government's official web portal to all federal, state and local government web resources and services.